Flight Track Log - Related Links

Times and Time Zones

All times are in EDT time to prevent confusion due to time zone crossing. See the SKW5550 flight status page for this flight to view local times or setup timezone preferences in your user account.

Time Position Orientation Groundspeed Altitude Reporting Facility
EDT Latitude Longitude Course Direction KTS MPH feet Rate Location/Type
Fri 05:11:02 PM 39.8500 -104.7833 270° West 202 232 7,500  Level Denver TRACON
Fri 05:12:02 PM 39.8833 -104.8500 303° West 264 304 8,900 1,789 Climbing Denver TRACON
Fri 05:12:56 PM 39.9000 -104.9500 282° West 283 326 10,900 2,250 Climbing Denver TRACON
Fri 05:14:02 PM 39.9167 -105.0500 282° West 273 314 13,400 1,714 Climbing Denver TRACON
Fri 05:15:02 PM 39.9333 -105.1667 281° West 317 365 14,500 1,381 Climbing Denver TRACON
Fri 05:16:00 PM 39.8624 -105.4914 270° West  Level Estimated
Fri 05:16:08 PM 39.9333 -105.2833 270° West 333 383 16,300  Level Denver TRACON
Fri 05:17:20 PM 39.9503 -105.4364 278° West 336 387 17,900 1,343 Climbing Denver Center
Fri 05:18:22 PM 39.9642 -105.5594 278° West 345 397 19,300 1,452 Climbing Denver Center
Fri 05:19:24 PM 39.9753 -105.6956 276° West 351 404 20,900 1,306 Climbing Denver Center
Fri 05:20:26 PM 39.9747 -105.8233 270° West 348 400 22,000 968 Climbing Denver Center
Fri 05:21:28 PM 39.9747 -105.9367 270° West 347 399 22,900 1,016 Climbing Denver Center
Fri 05:22:30 PM 39.9836 -106.0967 274° West 366 421 24,100 1,016 Climbing Denver Center
Fri 05:23:32 PM 39.9908 -106.2314 274° West 372 428 25,000 968 Climbing Denver Center
Fri 05:24:34 PM 39.9983 -106.3669 274° West 376 433 26,100 871 Climbing Denver Center
Fri 05:25:36 PM 40.0139 -106.5206 278° West 378 435 26,800 581 Climbing Denver Center
Fri 05:26:38 PM 40.0364 -106.6583 282° West 388 447 27,300 435 Climbing Denver Center
Fri 05:27:40 PM 40.0569 -106.7928 281° West 393 452 27,700 624 Climbing Denver Center
Fri 05:28:43 PM 40.0800 -106.9500 281° West 396 456 28,600 912 Climbing Denver Center
Fri 05:29:45 PM 40.0992 -107.0806 281° West 386 444 29,600 1,016 Climbing Denver Center
Fri 05:30:47 PM 40.1222 -107.2286 282° West 374 430 30,700 919 Climbing Denver Center
Fri 05:31:49 PM 40.1403 -107.3525 281° West 364 419 31,500 629 Climbing Denver Center
Fri 05:32:51 PM 40.1608 -107.4958 281° West 360 414 32,000 242 Climbing Denver Center
Fri 05:33:53 PM 40.1794 -107.6222 281° West 369 425 32,000  Level Denver Center
Fri 05:34:55 PM 40.2025 -107.7731 281° West 380 437 32,000  Level Denver Center
Fri 05:35:57 PM 40.2211 -107.9044 281° West 384 442 32,000  Level Denver Center
Fri 05:36:59 PM 40.2442 -108.0606 281° West 391 450 32,000  Level Denver Center
Fri 05:38:01 PM 40.2619 -108.1933 280° West 389 448 32,000  Level Denver Center
Fri 05:39:03 PM 40.2836 -108.3481 280° West 390 449 32,000  Level Denver Center
Fri 05:39:38 PM 40.2931 -108.4139 281° West 394 453 32,000  Level Salt Lake Center
Fri 05:40:40 PM 40.3139 -108.5700 280° West 390 449 32,000  Level Salt Lake Center
Fri 05:41:42 PM 40.3314 -108.7036 280° West 390 449 32,000  Level Salt Lake Center
Fri 05:42:44 PM 40.3528 -108.8567 280° West 386 444 32,000  Level Salt Lake Center
Fri 05:43:46 PM 40.3703 -108.9881 280° West 384 442 32,000  Level Salt Lake Center
Fri 05:44:48 PM 40.3914 -109.1439 280° West 390 449 32,000  Level Salt Lake Center
Fri 05:45:50 PM 40.4086 -109.2775 280° West 390 449 32,000  Level Salt Lake Center
Fri 05:46:52 PM 40.4286 -109.4356 279° West 394 453 32,000  Level Salt Lake Center
Fri 05:47:54 PM 40.4467 -109.5706 280° West 394 453 32,000  Level Salt Lake Center
Fri 05:48:55 PM 40.4628 -109.7081 279° West 399 459 32,000  Level Salt Lake Center
Fri 05:49:57 PM 40.4836 -109.8661 280° West 397 457 32,000  Level Salt Lake Center
Fri 05:50:59 PM 40.5006 -110.0042 279° West 398 458 32,000  Level Salt Lake Center
Fri 05:52:01 PM 40.5164 -110.1650 277° West 400 460 32,000  Level Salt Lake Center
Fri 05:53:03 PM 40.5300 -110.3019 277° West 396 456 32,000  Level Salt Lake Center
Fri 05:54:05 PM 40.5447 -110.4619 277° West 395 455 32,000  Level Salt Lake Center
Fri 05:55:07 PM 40.5572 -110.5969 277° West 397 457 32,000  Level Salt Lake Center
Fri 05:56:09 PM 40.5708 -110.7406 277° West 397 457 32,000  Level Salt Lake Center
Fri 05:57:11 PM 40.5839 -110.8839 277° West 396 456 32,000  Level Salt Lake Center
Fri 05:58:12 PM 40.5994 -111.0567 277° West 395 455 32,000  Level Salt Lake Center
Fri 05:59:14 PM 40.6117 -111.1989 277° West 393 452 32,000  Level Salt Lake Center
Fri 06:00:16 PM 40.6242 -111.3411 277° West 392 451 32,000  Level Salt Lake Center
Fri 06:01:18 PM 40.6364 -111.4828 277° West 390 449 32,000  Level Salt Lake Center
Fri 06:02:20 PM 40.6483 -111.6247 276° West 389 448 32,000  Level Salt Lake Center
Fri 06:03:22 PM 40.6600 -111.7661 276° West 388 447 32,000  Level Salt Lake Center
Fri 06:04:24 PM 40.6714 -111.9075 276° West 386 444 32,000  Level Salt Lake Center
Fri 06:05:25 PM 40.6819 -112.0494 276° West 386 444 32,000  Level Salt Lake Center
Fri 06:06:27 PM 40.6961 -112.2192 276° West 389 448 32,000  Level Salt Lake Center
Fri 06:07:29 PM 40.7078 -112.3603 276° West 387 445 32,000  Level Salt Lake Center
Fri 06:08:31 PM 40.7189 -112.5022 276° West 388 447 32,000  Level Salt Lake Center
Fri 06:09:33 PM 40.7222 -112.6467 272° West 396 456 32,000  Level Salt Lake Center
Fri 06:10:35 PM 40.7236 -112.7897 271° West 391 450 32,000  Level Salt Lake Center
Fri 06:11:37 PM 40.7244 -112.9364 270° West 399 459 32,000  Level Salt Lake Center
Fri 06:12:39 PM 40.7250 -113.0817 270° West 396 456 32,000  Level Salt Lake Center
Fri 06:13:41 PM 40.7261 -113.2583 271° West 401 461 32,000  Level Salt Lake Center
Fri 06:14:43 PM 40.7256 -113.4033 270° West 398 458 32,000  Level Salt Lake Center
Fri 06:15:45 PM 40.7269 -113.5506 271° West 402 463 32,000  Level Salt Lake Center
Fri 06:16:46 PM 40.7272 -113.6969 270° West 400 460 32,000  Level Salt Lake Center
Fri 06:17:48 PM 40.7244 -113.8433 269° West 401 461 32,000  Level Salt Lake Center
Fri 06:18:50 PM 40.7189 -113.9914 267° West 404 465 32,000  Level Salt Lake Center
Fri 06:19:52 PM 40.7131 -114.1681 268° West 403 464 32,000  Level Salt Lake Center
Fri 06:20:54 PM 40.7078 -114.3164 267° West 406 467 32,000  Level Salt Lake Center
Fri 06:21:56 PM 40.7028 -114.4636 267° West 405 466 32,000  Level Salt Lake Center
Fri 06:22:58 PM 40.6989 -114.6111 268° West 404 465 32,000  Level Salt Lake Center
Fri 06:24:00 PM 40.6911 -114.7586 266° West 404 465 32,000  Level Salt Lake Center
Fri 06:25:02 PM 40.6836 -114.9181 267° West 402 463 32,000  Level Salt Lake Center
Fri 06:26:04 PM 40.6767 -115.0578 266° West 401 461 32,000  Level Salt Lake Center
Fri 06:27:06 PM 40.6644 -115.2206 264° West 400 460 32,000  Level Salt Lake Center
Fri 06:28:08 PM 40.6589 -115.3589 267° West 398 458 32,000  Level Salt Lake Center
Fri 06:29:10 PM 40.6503 -115.5194 266° West 395 455 32,000  Level Salt Lake Center
Fri 06:30:12 PM 40.6444 -115.6592 267° West 397 457 32,000  Level Salt Lake Center
Fri 06:31:14 PM 40.6378 -115.7981 266° West 397 457 32,000  Level Salt Lake Center
Fri 06:32:16 PM 40.6286 -115.9586 266° West 395 455 32,000  Level Salt Lake Center
Fri 06:33:18 PM 40.6194 -116.1186 266° West 394 453 32,000  Level Salt Lake Center
Fri 06:34:20 PM 40.6114 -116.2572 266° West 395 455 32,000  Level Salt Lake Center
Fri 06:35:21 PM 40.6006 -116.4183 265° West 397 457 32,000  Level Salt Lake Center
Fri 06:36:23 PM 40.5925 -116.5550 266° West 394 453 32,000  Level Salt Lake Center
Fri 06:37:25 PM 40.5831 -116.7153 266° West 396 456 32,000  Level Salt Lake Center
Fri 06:38:27 PM 40.5739 -116.8519 265° West 397 457 32,000  Level Salt Lake Center
Fri 06:39:29 PM 40.5386 -117.0069 253° West 419 482 32,000  Level Salt Lake Center
Fri 06:40:31 PM 40.4922 -117.1353 245° Southwest 412 474 32,000  Level Salt Lake Center
Fri 06:41:33 PM 40.4369 -117.2847 244° Southwest 410 472 32,000  Level Salt Lake Center
Fri 06:42:35 PM 40.3897 -117.4117 244° Southwest 408 470 32,000  Level Salt Lake Center
Fri 06:43:37 PM 40.3350 -117.5603 244° Southwest 407 468 32,000  Level Salt Lake Center
Fri 06:44:38 PM 40.2869 -117.6881 244° Southwest 407 468 32,000  Level Salt Lake Center
Fri 06:45:40 PM 40.2319 -117.8369 244° Southwest 407 468 32,000  Level Salt Lake Center
Fri 06:46:41 PM 40.1881 -117.9553 244° Southwest 408 470 32,000  Level Oakland Center
Fri 06:47:43 PM 40.1383 -118.0872 244° Southwest 408 470 32,000  Level Oakland Center
Fri 06:48:45 PM 40.0789 -118.2469 244° Southwest 409 471 32,000  Level Oakland Center
Fri 06:49:46 PM 40.0286 -118.3781 243° Southwest 406 467 32,000  Level Oakland Center
Fri 06:50:48 PM 39.9783 -118.5100 244° Southwest 410 472 32,000  Level Oakland Center
Fri 06:51:50 PM 39.9269 -118.6422 243° Southwest 412 474 32,000  Level Oakland Center
Fri 06:52:51 PM 39.8764 -118.7744 244° Southwest 410 472 32,000  Level Oakland Center
Fri 06:53:53 PM 39.8253 -118.9047 243° Southwest 408 470 32,000  Level Oakland Center
Fri 06:54:54 PM 39.7644 -119.0619 243° Southwest 410 472 32,000  Level Oakland Center
Fri 06:55:56 PM 39.7131 -119.1936 243° Southwest 411 473 32,000  Level Oakland Center
Fri 06:56:58 PM 39.6619 -119.3242 243° Southwest 410 472 32,000 -49 Level Oakland Center
Fri 06:57:59 PM 39.6108 -119.4531 243° Southwest 405 466 31,900 -537 Descending Oakland Center
Fri 06:59:01 PM 39.5600 -119.5825 243° Southwest 404 465 30,900 -1,016 Descending Oakland Center
Fri 07:00:03 PM 39.5028 -119.7061 239° Southwest 402 463 29,800 -1,317 Descending Oakland Center
Fri 07:01:04 PM 39.4356 -119.8253 234° Southwest 409 471 28,200 -1,659 Descending Oakland Center
Fri 07:02:06 PM 39.3503 -119.9728 233° Southwest 426 490 26,400 -1,610 Descending Oakland Center
Fri 07:03:07 PM 39.2783 -120.0967 233° Southwest 430 495 24,900 -1,366 Descending Oakland Center
Fri 07:04:09 PM 39.2175 -120.2025 233° Southwest 423 487 23,600 -1,500 Descending Oakland Center
Fri 07:05:11 PM 39.1558 -120.3597 243° Southwest 408 470 21,800 -1,756 Descending Oakland Center
Fri 07:06:12 PM 39.1219 -120.4956 252° West 398 458 20,000 -1,854 Descending Oakland Center
Fri 07:07:14 PM 39.0881 -120.6289 252° West 394 453 18,000 -1,887 Descending Oakland Center
Fri 07:08:16 PM 39.0542 -120.7622 252° West 393 452 16,100 -2,537 Descending Oakland Center
Fri 07:09:17 PM 39.0206 -120.8908 251° West 384 442 12,800 -2,537 Descending Oakland Center
Fri 07:10:19 PM 38.9900 -121.0081 251° West 357 411 10,900 -1,984 Descending Oakland Center
Fri 07:11:21 PM 38.9661 -121.1033 252° West 286 329 8,700 -2,274 Descending Oakland Center
Fri 07:11:54 PM 38.9500 -121.1667 252° West 279 321 7,300 -2,065 Descending Northern Cal TRACON
Fri 07:12:54 PM 38.9167 -121.2667 247° West 270 311 5,500 -1,140 Descending Northern Cal TRACON
Fri 07:13:55 PM 38.9000 -121.3500 256° West 249 287 5,000 -496 Descending Northern Cal TRACON
Fri 07:14:55 PM 38.8667 -121.4333 243° Southwest 266 306 4,500 -800 Descending Northern Cal TRACON
Fri 07:15:55 PM 38.8333 -121.5167 243° Southwest 239 275 3,400 -1,100 Descending Northern Cal TRACON
Fri 07:16:55 PM 38.8000 -121.5667 229° Southwest 205 236 2,300 -1,200 Descending Northern Cal TRACON
Fri 07:17:55 PM 38.7500 -121.5833 195° South 162 186 1,000 -1,050 Descending Northern Cal TRACON
Fri 07:18:55 PM 38.7167 -121.5833 180° South 136 157 200 -800 Descending Northern Cal TRACON
Fri 07:21:00 PM 38.6954 -121.5908 218° Southwest  Level Estimated

Login

Don't have an account? Register now (free) for customized features, flight alerts, and more!